Aurora, Texas
Current Conditions -  °F | °C
As of 7:53 AM on Thursday 23 Oct 2014 (Local Time) from KAFW Reporting Station
Overcast Overcast  
Wind Chill: 64°   Ceiling: 5500
Heat Index: 64°   Visibility: 10mi
Dew Point: 55°   Wind: 5mph
Humidity: 72%   Direction: 150°SSE
Pressure: 30.13"   Gusts: NA
Location:  33.0495°N, 97.45°W
Report Text: KAFW 231253Z 15004KT 10SM BKN055 OVC065 18/13 A3013 RMK AO2 SLP194 T01780128
Loading
Personal Weather Stations






























Interactive Weather Map
Tropical Storm Tracking
New forecast layout! Learn more

10-Day Weather Forecast

Advertisements
Track Severe Weather on mobile